Time,TemperatureF,DewpointF,PressureIn,WindDirection,WindDirectionDegrees,WindSpeedMPH,WindSpeedGustMPH,Humidity,HourlyPrecipIn,Conditions,Clouds,dailyrainin,SoftwareType,DateUTC
2013-01-24 00:04:00,2.3,-11.7,30.11,North,357,12.8,13.2,51,0.00,,CLR,0.00,VWS V14.01,2013-01-24 06:04:00,
2013-01-24 00:10:00,2.1,-11.9,30.11,North,5,8.7,16.3,51,0.00,,CLR,0.00,VWS V14.01,2013-01-24 06:10:00,
2013-01-24 00:16:00,1.9,-12.0,30.11,NNW,343,10.5,15.0,51,0.00,,CLR,0.00,VWS V14.01,2013-01-24 06:16:00,
2013-01-24 00:21:00,1.9,-12.0,30.11,NNW,340,12.8,13.2,51,0.00,,CLR,0.00,VWS V14.01,2013-01-24 06:21:00,
2013-01-24 00:27:00,1.9,-12.0,30.14,North,349,8.7,10.5,51,0.00,,CLR,0.00,VWS V14.01,2013-01-24 06:27:00,
2013-01-24 00:32:00,1.8,-12.2,30.14,NNE,26,8.7,12.3,51,0.00,,CLR,0.00,VWS V14.01,2013-01-24 06:32:00,
2013-01-24 00:38:00,1.6,-12.4,30.14,North,7,8.3,11.0,51,0.00,,CLR,0.00,VWS V14.01,2013-01-24 06:38:00,
2013-01-24 00:44:00,1.6,-12.4,30.14,NW,322,8.7,11.0,51,0.00,,CLR,0.00,VWS V14.01,2013-01-24 06:44:00,
2013-01-24 00:49:00,1.4,-12.5,30.14,NNW,327,8.3,10.5,51,0.00,,CLR,0.00,VWS V14.01,2013-01-24 06:49:00,
2013-01-24 00:55:00,1.2,-12.7,30.14,North,353,11.0,11.0,51,0.00,,CLR,0.00,VWS V14.01,2013-01-24 06:55:00,
2013-01-24 01:00:00,1.0,-12.9,30.14,North,357,8.7,10.1,51,0.00,,CLR,0.00,VWS V14.01,2013-01-24 07:00:00,
2013-01-24 01:06:00,0.9,-13.0,30.14,NW,320,10.1,10.1,51,0.00,,CLR,0.00,VWS V14.01,2013-01-24 07:06:00,
2013-01-24 01:12:00,0.7,-13.2,30.17,NNW,333,8.7,13.2,51,0.00,,CLR,0.00,VWS V14.01,2013-01-24 07:12:00,
2013-01-24 01:17:00,0.7,-13.2,30.17,NW,319,8.1,13.2,51,0.00,,CLR,0.00,VWS V14.01,2013-01-24 07:17:00,
2013-01-24 01:22:00,0.7,-13.2,30.17,NNW,337,11.0,11.0,51,0.00,,CLR,0.00,VWS V14.01,2013-01-24 07:22:00,
2013-01-24 01:28:00,0.5,-13.4,30.17,NNW,334,5.8,8.3,51,0.00,,CLR,0.00,VWS V14.01,2013-01-24 07:28:00,
2013-01-24 01:33:00,0.3,-13.5,30.17,NW,317,8.1,11.0,51,0.00,,CLR,0.00,VWS V14.01,2013-01-24 07:33:00,
2013-01-24 01:39:00,0.0,-13.9,30.17,NNW,335,12.8,13.2,51,0.00,,CLR,0.00,VWS V14.01,2013-01-24 07:39:00,
2013-01-24 01:44:00,-0.2,-14.0,30.17,NW,312,8.1,8.7,51,0.00,,CLR,0.00,VWS V14.01,2013-01-24 07:44:00,
2013-01-24 01:49:00,-0.4,-14.2,30.17,NNW,338,7.6,8.7,51,0.00,,CLR,0.00,VWS V14.01,2013-01-24 07:49:00,
2013-01-24 01:54:00,-0.6,-14.4,30.17,NW,325,6.7,8.3,51,0.00,,CLR,0.00,VWS V14.01,2013-01-24 07:54:00,
2013-01-24 02:00:00,-0.6,-14.4,30.17,NNW,341,6.3,8.3,51,0.00,,CLR,0.00,VWS V14.01,2013-01-24 08:00:00,
2013-01-24 02:06:00,-0.8,-14.5,30.17,NNW,331,8.1,8.1,51,0.00,,CLR,0.00,VWS V14.01,2013-01-24 08:06:00,
2013-01-24 02:11:00,-0.8,-14.5,30.20,NW,310,10.5,10.5,51,0.00,,CLR,0.00,VWS V14.01,2013-01-24 08:11:00,
2013-01-24 02:16:00,-0.9,-14.7,30.20,NW,319,7.2,11.4,51,0.00,,CLR,0.00,VWS V14.01,2013-01-24 08:16:00,
2013-01-24 02:22:00,-0.9,-14.7,30.20,NNW,333,8.1,11.0,51,0.00,,CLR,0.00,VWS V14.01,2013-01-24 08:22:00,
2013-01-24 02:27:00,-1.1,-14.9,30.20,NW,316,6.3,8.3,51,0.00,,CLR,0.00,VWS V14.01,2013-01-24 08:27:00,
2013-01-24 02:33:00,-1.1,-14.9,30.20,NNW,329,5.4,8.7,51,0.00,,CLR,0.00,VWS V14.01,2013-01-24 08:33:00,
2013-01-24 02:38:00,-1.3,-15.0,30.20,NNW,335,8.1,8.1,51,0.00,,CLR,0.00,VWS V14.01,2013-01-24 08:38:00,
2013-01-24 02:43:00,-1.3,-15.0,30.20,NNW,327,8.7,9.6,51,0.00,,CLR,0.00,VWS V14.01,2013-01-24 08:43:00,
2013-01-24 02:48:00,-1.3,-15.0,30.20,NW,326,5.8,8.3,51,0.00,,CLR,0.00,VWS V14.01,2013-01-24 08:48:00,
2013-01-24 02:54:00,-1.5,-15.2,30.20,NW,306,10.5,10.5,51,0.00,,CLR,0.00,VWS V14.01,2013-01-24 08:54:00,
2013-01-24 02:59:00,-1.7,-15.4,30.20,NNW,327,8.1,8.1,51,0.00,,CLR,0.00,VWS V14.01,2013-01-24 08:59:00,
2013-01-24 03:04:00,-1.7,-15.4,30.20,NW,320,5.4,8.7,51,0.00,,CLR,0.00,VWS V14.01,2013-01-24 09:04:00,
2013-01-24 03:09:00,-1.7,-15.4,30.20,NNW,346,3.6,6.3,51,0.00,,CLR,0.00,VWS V14.01,2013-01-24 09:09:00,
2013-01-24 03:15:00,-1.8,-15.5,30.20,NW,321,8.3,8.3,51,0.00,,CLR,0.00,VWS V14.01,2013-01-24 09:15:00,
2013-01-24 03:21:00,-1.8,-15.5,30.20,NW,305,6.3,8.1,51,0.00,,CLR,0.00,VWS V14.01,2013-01-24 09:21:00,
2013-01-24 03:26:00,-1.8,-15.5,30.23,NNW,341,4.0,6.3,51,0.00,,CLR,0.00,VWS V14.01,2013-01-24 09:26:00,
2013-01-24 03:31:00,-1.8,-15.5,30.23,NW,320,5.8,8.3,51,0.00,,CLR,0.00,VWS V14.01,2013-01-24 09:31:00,
2013-01-24 03:37:00,-1.8,-15.5,30.23,NW,324,6.3,7.6,51,0.00,,CLR,0.00,VWS V14.01,2013-01-24 09:37:00,
2013-01-24 03:42:00,-1.8,-15.5,30.23,NNW,337,10.1,10.1,51,0.00,,CLR,0.00,VWS V14.01,2013-01-24 09:42:00,
2013-01-24 03:47:00,-1.8,-15.5,30.23,North,353,4.5,6.3,51,0.00,,CLR,0.00,VWS V14.01,2013-01-24 09:47:00,
2013-01-24 03:53:00,-1.8,-15.5,30.23,NNW,330,4.0,8.1,51,0.00,,CLR,0.00,VWS V14.01,2013-01-24 09:53:00,
2013-01-24 03:58:00,-1.8,-15.5,30.23,North,353,6.3,8.1,51,0.00,,CLR,0.00,VWS V14.01,2013-01-24 09:58:00,
2013-01-24 04:03:00,-2.0,-15.7,30.23,NNW,337,3.6,5.8,51,0.00,,CLR,0.00,VWS V14.01,2013-01-24 10:03:00,
2013-01-24 04:08:00,-2.0,-15.7,30.23,NNW,341,4.0,10.5,51,0.00,,CLR,0.00,VWS V14.01,2013-01-24 10:08:00,
2013-01-24 04:13:00,-2.0,-15.7,30.23,NNW,341,7.6,7.6,51,0.00,,CLR,0.00,VWS V14.01,2013-01-24 10:13:00,
2013-01-24 04:19:00,-2.0,-15.7,30.23,North,353,7.2,7.2,51,0.00,,CLR,0.00,VWS V14.01,2013-01-24 10:19:00,
2013-01-24 04:25:00,-2.0,-15.7,30.23,NNW,330,5.4,8.1,51,0.00,,CLR,0.00,VWS V14.01,2013-01-24 10:25:00,
2013-01-24 04:30:00,-2.0,-15.7,30.23,NNE,13,5.4,10.5,51,0.00,,CLR,0.00,VWS V14.01,2013-01-24 10:30:00,
2013-01-24 04:36:00,-2.2,-15.9,30.23,North,353,5.8,8.7,51,0.00,,CLR,0.00,VWS V14.01,2013-01-24 10:36:00,
2013-01-24 04:41:00,-2.2,-15.9,30.26,NNW,343,5.4,7.6,51,0.00,,CLR,0.00,VWS V14.01,2013-01-24 10:41:00,
2013-01-24 04:47:00,-2.2,-15.9,30.26,North,357,6.3,6.3,51,0.00,,CLR,0.00,VWS V14.01,2013-01-24 10:47:00,
2013-01-24 04:53:00,-2.2,-15.9,30.26,NNW,348,3.1,6.3,51,0.00,,CLR,0.00,VWS V14.01,2013-01-24 10:53:00,
2013-01-24 04:57:00,-2.2,-15.9,30.26,NNW,346,4.0,5.4,51,0.00,,CLR,0.00,VWS V14.01,2013-01-24 10:57:00,
2013-01-24 05:03:00,-2.2,-15.9,30.26,NNW,330,6.3,8.7,51,0.00,,CLR,0.00,VWS V14.01,2013-01-24 11:03:00,
2013-01-24 05:08:00,-2.2,-15.9,30.26,North,350,5.8,5.8,51,0.00,,CLR,0.00,VWS V14.01,2013-01-24 11:08:00,
2013-01-24 05:13:00,-2.2,-15.9,30.26,NNW,327,6.3,8.1,51,0.00,,CLR,0.00,VWS V14.01,2013-01-24 11:13:00,
2013-01-24 05:18:00,-2.2,-15.9,30.26,NNW,337,3.6,6.3,51,0.00,,CLR,0.00,VWS V14.01,2013-01-24 11:18:00,
2013-01-24 05:24:00,-2.2,-15.9,30.29,NNW,344,6.3,6.3,51,0.00,,CLR,0.00,VWS V14.01,2013-01-24 11:24:00,
2013-01-24 05:29:00,-2.2,-15.9,30.29,WNW,302,5.8,6.3,51,0.00,,CLR,0.00,VWS V14.01,2013-01-24 11:29:00,
2013-01-24 05:35:00,-2.2,-15.9,30.29,NW,314,4.9,5.4,51,0.00,,CLR,0.00,VWS V14.01,2013-01-24 11:35:00,
2013-01-24 05:40:00,-2.4,-16.0,30.29,WNW,303,4.9,6.3,51,0.00,,CLR,0.00,VWS V14.01,2013-01-24 11:40:00,
2013-01-24 05:46:00,-2.6,-16.2,30.29,NNW,327,4.5,5.8,51,0.00,,CLR,0.00,VWS V14.01,2013-01-24 11:46:00,
2013-01-24 05:51:00,-2.6,-16.2,30.29,NNW,339,7.6,7.6,51,0.00,,CLR,0.00,VWS V14.01,2013-01-24 11:51:00,
2013-01-24 05:57:00,-2.7,-16.4,30.29,NNW,338,4.0,7.6,51,0.00,,CLR,0.00,VWS V14.01,2013-01-24 11:57:00,
2013-01-24 06:01:00,-2.9,-16.5,30.29,NNW,334,7.6,8.7,51,0.00,,CLR,0.00,VWS V14.01,2013-01-24 12:01:00,
2013-01-24 06:07:00,-2.9,-16.5,30.29,NW,323,5.8,6.3,51,0.00,,CLR,0.00,VWS V14.01,2013-01-24 12:07:00,
2013-01-24 06:12:00,-2.9,-16.5,30.29,NNW,340,4.9,8.7,51,0.00,,CLR,0.00,VWS V14.01,2013-01-24 12:12:00,
2013-01-24 06:17:00,-2.9,-16.5,30.29,North,353,5.8,5.8,51,0.00,,CLR,0.00,VWS V14.01,2013-01-24 12:17:00,
2013-01-24 06:23:00,-2.7,-16.4,30.29,NW,326,3.1,8.1,51,0.00,,CLR,0.00,VWS V14.01,2013-01-24 12:23:00,
2013-01-24 06:28:00,-2.6,-16.2,30.29,NNW,327,3.6,5.8,51,0.00,,CLR,0.00,VWS V14.01,2013-01-24 12:28:00,
2013-01-24 06:34:00,-2.6,-16.2,30.29,NW,313,3.1,4.0,51,0.00,,CLR,0.00,VWS V14.01,2013-01-24 12:34:00,
2013-01-24 06:39:00,-2.6,-16.2,30.29,NW,319,5.8,6.3,51,0.00,,CLR,0.00,VWS V14.01,2013-01-24 12:39:00,
2013-01-24 06:44:00,-2.6,-16.2,30.29,NNW,330,4.9,6.3,51,0.00,,CLR,0.00,VWS V14.01,2013-01-24 12:44:00,
2013-01-24 06:49:00,-2.7,-16.4,30.29,NNW,333,5.4,6.3,51,0.00,,CLR,0.00,VWS V14.01,2013-01-24 12:49:00,
2013-01-24 06:55:00,-2.9,-16.5,30.29,NW,317,5.8,5.8,51,0.00,,CLR,0.00,VWS V14.01,2013-01-24 12:55:00,
2013-01-24 07:00:00,-2.9,-16.5,30.29,North,349,3.1,5.4,51,0.00,,CLR,0.00,VWS V14.01,2013-01-24 13:00:00,
2013-01-24 07:05:00,-2.9,-16.5,30.29,NNW,330,8.7,8.7,51,0.00,,CLR,0.00,VWS V14.01,2013-01-24 13:05:00,
2013-01-24 07:11:00,-2.9,-16.5,30.29,NNW,337,5.4,6.3,51,0.00,,CLR,0.00,VWS V14.01,2013-01-24 13:11:00,
2013-01-24 07:16:00,-2.7,-16.4,30.29,NNW,332,5.8,5.8,51,0.00,,CLR,0.00,VWS V14.01,2013-01-24 13:16:00,
2013-01-24 07:21:00,-2.7,-16.4,30.29,NNW,333,5.4,5.8,51,0.00,,CLR,0.00,VWS V14.01,2013-01-24 13:21:00,
2013-01-24 07:26:00,-2.7,-16.4,30.32,NNW,343,3.6,4.9,51,0.00,,CLR,0.00,VWS V14.01,2013-01-24 13:26:00,
2013-01-24 07:31:00,-2.7,-16.4,30.32,NNW,329,5.4,5.4,51,0.00,,CLR,0.00,VWS V14.01,2013-01-24 13:31:00,
2013-01-24 07:36:00,-2.7,-16.4,30.32,North,353,4.0,6.3,51,0.00,,CLR,0.00,VWS V14.01,2013-01-24 13:36:00,
2013-01-24 07:42:00,-2.7,-16.4,30.32,NNW,341,4.0,4.5,51,0.00,,CLR,0.00,VWS V14.01,2013-01-24 13:42:00,
2013-01-24 07:47:00,-2.7,-16.4,30.32,NNW,346,4.0,6.3,51,0.00,,CLR,0.00,VWS V14.01,2013-01-24 13:47:00,
2013-01-24 07:53:00,-2.7,-16.4,30.32,North,349,4.9,5.8,51,0.00,,CLR,0.00,VWS V14.01,2013-01-24 13:53:00,
2013-01-24 07:58:00,-2.6,-16.2,30.32,NW,322,5.4,5.8,51,0.00,,CLR,0.00,VWS V14.01,2013-01-24 13:58:00,
2013-01-24 08:03:00,-2.6,-16.2,30.32,North,357,5.8,7.6,51,0.00,,CLR,0.00,VWS V14.01,2013-01-24 14:03:00,
2013-01-24 08:08:00,-2.6,-16.2,30.32,NNW,334,5.8,5.8,51,0.00,,CLR,0.00,VWS V14.01,2013-01-24 14:08:00,
2013-01-24 08:14:00,-2.4,-16.0,30.32,NNW,346,6.3,6.3,51,0.00,,CLR,0.00,VWS V14.01,2013-01-24 14:14:00,
2013-01-24 08:20:00,-2.2,-15.9,30.32,NW,325,5.8,8.3,51,0.00,,CLR,0.00,VWS V14.01,2013-01-24 14:20:00,
2013-01-24 08:26:00,-2.0,-15.7,30.35,North,2,5.8,7.6,51,0.00,,CLR,0.00,VWS V14.01,2013-01-24 14:26:00,
2013-01-24 08:31:00,-1.7,-15.4,30.35,NNW,345,6.7,8.1,51,0.00,,CLR,0.00,VWS V14.01,2013-01-24 14:31:00,
2013-01-24 08:36:00,-1.5,-15.2,30.35,NNE,14,5.8,5.8,51,0.00,,CLR,0.00,VWS V14.01,2013-01-24 14:36:00,
2013-01-24 08:42:00,-1.3,-15.0,30.35,North,8,5.8,6.3,51,0.00,,CLR,0.00,VWS V14.01,2013-01-24 14:42:00,
2013-01-24 08:47:00,-1.1,-14.9,30.35,NNW,328,5.8,5.8,51,0.00,,CLR,0.00,VWS V14.01,2013-01-24 14:47:00,
2013-01-24 08:52:00,-0.9,-14.7,30.35,NNE,16,4.9,5.8,51,0.00,,CLR,0.00,VWS V14.01,2013-01-24 14:52:00,
2013-01-24 08:57:00,-0.6,-14.4,30.35,NNE,13,8.1,8.1,51,0.00,,CLR,0.00,VWS V14.01,2013-01-24 14:57:00,
2013-01-24 09:03:00,-0.2,-14.0,30.35,North,353,6.3,6.3,51,0.00,,CLR,0.00,VWS V14.01,2013-01-24 15:03:00,
2013-01-24 09:09:00,0.1,-13.7,30.35,North,10,8.7,11.0,51,0.00,,CLR,0.00,VWS V14.01,2013-01-24 15:09:00,
2013-01-24 09:14:00,0.5,-13.4,30.35,North,9,3.6,5.4,51,0.00,,CLR,0.00,VWS V14.01,2013-01-24 15:14:00,
2013-01-24 09:20:00,0.9,-13.0,30.35,North,357,6.3,8.3,51,0.00,,CLR,0.00,VWS V14.01,2013-01-24 15:20:00,
2013-01-24 09:25:00,1.0,-12.9,30.35,North,1,6.7,6.7,51,0.00,,CLR,0.00,VWS V14.01,2013-01-24 15:25:00,
2013-01-24 09:30:00,1.2,-12.7,30.35,NNE,20,5.4,8.7,51,0.00,,CLR,0.00,VWS V14.01,2013-01-24 15:30:00,
2013-01-24 09:36:00,1.4,-12.5,30.35,North,10,4.0,7.6,51,0.00,,CLR,0.00,VWS V14.01,2013-01-24 15:36:00,
2013-01-24 09:41:00,1.6,-12.4,30.35,NNE,16,5.8,9.2,51,0.00,,CLR,0.00,VWS V14.01,2013-01-24 15:41:00,
2013-01-24 09:46:00,1.6,-12.4,30.35,North,357,6.3,6.3,51,0.00,,CLR,0.00,VWS V14.01,2013-01-24 15:46:00,
2013-01-24 09:51:00,2.1,-11.9,30.35,NNE,19,3.6,5.8,51,0.00,,CLR,0.00,VWS V14.01,2013-01-24 15:51:00,
2013-01-24 09:56:00,2.7,-11.3,30.35,NNE,20,6.3,6.3,51,0.00,,CLR,0.00,VWS V14.01,2013-01-24 15:56:00,
2013-01-24 10:02:00,2.8,-11.2,30.35,North,3,8.7,8.7,51,0.00,,CLR,0.00,VWS V14.01,2013-01-24 16:02:00,
2013-01-24 10:07:00,3.0,-11.0,30.35,NNE,20,5.8,9.2,51,0.00,,CLR,0.00,VWS V14.01,2013-01-24 16:07:00,
2013-01-24 10:12:00,3.2,-10.8,30.32,North,7,5.8,5.8,51,0.00,,CLR,0.00,VWS V14.01,2013-01-24 16:12:00,
2013-01-24 10:18:00,3.9,-10.2,30.32,North,5,6.3,6.3,51,0.00,,CLR,0.00,VWS V14.01,2013-01-24 16:18:00,
2013-01-24 10:23:00,4.5,-9.7,30.32,NNE,13,3.1,4.9,51,0.00,,CLR,0.00,VWS V14.01,2013-01-24 16:23:00,
2013-01-24 10:28:00,5.0,-9.2,30.32,NNE,26,4.0,4.9,51,0.00,,CLR,0.00,VWS V14.01,2013-01-24 16:28:00,
2013-01-24 10:34:00,5.2,-9.0,30.32,North,357,5.8,8.1,51,0.00,,CLR,0.00,VWS V14.01,2013-01-24 16:34:00,
2013-01-24 10:40:00,5.7,-8.5,30.32,ENE,70,3.6,3.6,51,0.00,,CLR,0.00,VWS V14.01,2013-01-24 16:40:00,
2013-01-24 10:45:00,6.3,-8.0,30.32,NNE,14,2.7,4.9,51,0.00,,CLR,0.00,VWS V14.01,2013-01-24 16:45:00,
2013-01-24 10:51:00,6.4,-7.8,30.32,NNE,26,0.0,4.5,51,0.00,,CLR,0.00,VWS V14.01,2013-01-24 16:51:00,
2013-01-24 10:56:00,6.8,-7.5,30.32,NE,35,3.1,3.1,51,0.00,,CLR,0.00,VWS V14.01,2013-01-24 16:56:00,
2013-01-24 11:02:00,7.0,-7.3,30.32,North,9,3.6,4.9,51,0.00,,CLR,0.00,VWS V14.01,2013-01-24 17:02:00,
2013-01-24 11:09:00,6.6,-7.7,30.32,North,3,6.3,6.3,51,0.00,,CLR,0.00,VWS V14.01,2013-01-24 17:09:00,
2013-01-24 11:15:00,6.4,-7.8,30.32,North,357,5.8,5.8,51,0.00,,CLR,0.00,VWS V14.01,2013-01-24 17:15:00,
2013-01-24 11:20:00,6.3,-8.0,30.32,NNE,15,6.3,6.7,51,0.00,,CLR,0.00,VWS V14.01,2013-01-24 17:20:00,
2013-01-24 11:26:00,6.6,-7.7,30.32,NNE,26,0.0,0.0,51,0.00,,CLR,0.00,VWS V14.01,2013-01-24 17:26:00,
2013-01-24 11:31:00,7.0,-7.3,30.32,North,357,3.1,5.4,51,0.00,,CLR,0.00,VWS V14.01,2013-01-24 17:31:00,
2013-01-24 11:37:00,6.8,-7.5,30.32,North,357,0.0,0.0,51,0.00,,CLR,0.00,VWS V14.01,2013-01-24 17:37:00,
2013-01-24 11:42:00,7.3,-7.0,30.29,NNE,17,0.0,0.0,51,0.00,,CLR,0.00,VWS V14.01,2013-01-24 17:42:00,
2013-01-24 11:49:00,7.7,-6.7,30.29,NE,35,0.0,0.0,51,0.00,,CLR,0.00,VWS V14.01,2013-01-24 17:49:00,
2013-01-24 11:54:00,8.2,-6.2,30.32,North,11,3.1,3.1,51,0.00,,CLR,0.00,VWS V14.01,2013-01-24 17:54:00,
2013-01-24 11:59:00,7.7,-6.7,30.32,NNE,17,2.7,3.6,51,0.00,,CLR,0.00,VWS V14.01,2013-01-24 17:59:00,
2013-01-24 12:05:00,7.3,-7.0,30.32,NNE,27,0.0,2.7,51,0.00,,CLR,0.00,VWS V14.01,2013-01-24 18:05:00,
2013-01-24 12:11:00,7.5,-6.8,30.29,NNE,19,3.6,3.6,51,0.00,,CLR,0.00,VWS V14.01,2013-01-24 18:11:00,
2013-01-24 12:17:00,8.1,-6.3,30.29,NNE,21,0.0,0.0,51,0.00,,CLR,0.00,VWS V14.01,2013-01-24 18:17:00,
2013-01-24 12:22:00,8.2,-6.2,30.29,NNE,22,0.0,0.0,51,0.00,,CLR,0.00,VWS V14.01,2013-01-24 18:22:00,
2013-01-24 12:27:00,8.4,-6.0,30.29,NNE,21,0.0,0.0,51,0.00,,CLR,0.00,VWS V14.01,2013-01-24 18:27:00,
2013-01-24 12:33:00,8.1,-6.3,30.29,NNE,20,0.0,0.0,51,0.00,,CLR,0.00,VWS V14.01,2013-01-24 18:33:00,
2013-01-24 12:38:00,8.4,-6.0,30.29,NNE,21,0.0,0.0,51,0.00,,CLR,0.00,VWS V14.01,2013-01-24 18:38:00,
2013-01-24 12:44:00,9.1,-5.3,30.29,East,90,0.0,0.0,51,0.00,,CLR,0.00,VWS V14.01,2013-01-24 18:44:00,
2013-01-24 12:50:00,9.1,-5.3,30.29,NNE,15,3.1,4.9,51,0.00,,CLR,0.00,VWS V14.01,2013-01-24 18:50:00,
2013-01-24 12:55:00,9.3,-5.1,30.26,NE,48,0.0,0.0,51,0.00,,CLR,0.00,VWS V14.01,2013-01-24 18:55:00,
2013-01-24 13:01:00,9.9,-4.6,30.26,NNE,28,0.0,0.0,51,0.00,,CLR,0.00,VWS V14.01,2013-01-24 19:01:00,
2013-01-24 13:06:00,9.9,-4.6,30.26,NNE,16,0.0,0.0,51,0.00,,CLR,0.00,VWS V14.01,2013-01-24 19:06:00,
2013-01-24 13:11:00,10.0,-4.5,30.26,NNE,21,0.0,0.0,51,0.00,,CLR,0.00,VWS V14.01,2013-01-24 19:11:00,
2013-01-24 13:16:00,10.2,-4.3,30.26,NNE,23,2.7,4.0,51,0.00,,CLR,0.00,VWS V14.01,2013-01-24 19:16:00,
2013-01-24 13:22:00,9.5,-5.0,30.26,NNE,22,0.0,0.0,51,0.00,,CLR,0.00,VWS V14.01,2013-01-24 19:22:00,
2013-01-24 13:27:00,9.0,-5.5,30.26,NNE,13,0.0,0.0,51,0.00,,CLR,0.00,VWS V14.01,2013-01-24 19:27:00,
2013-01-24 13:33:00,9.1,-5.3,30.26,NNE,20,0.0,0.0,51,0.00,,CLR,0.00,VWS V14.01,2013-01-24 19:33:00,
2013-01-24 13:38:00,9.5,-5.0,30.26,NNE,19,0.0,0.0,51,0.00,,CLR,0.00,VWS V14.01,2013-01-24 19:38:00,
2013-01-24 13:44:00,10.0,-4.5,30.26,North,8,3.1,5.4,51,0.00,,CLR,0.00,VWS V14.01,2013-01-24 19:44:00,
2013-01-24 13:50:00,9.7,-4.8,30.26,North,8,4.0,5.4,51,0.00,,CLR,0.00,VWS V14.01,2013-01-24 19:50:00,
2013-01-24 13:55:00,9.9,-4.6,30.26,North,357,0.0,0.0,51,0.00,,CLR,0.00,VWS V14.01,2013-01-24 19:55:00,
2013-01-24 14:01:00,10.0,-4.5,30.26,NNE,12,4.0,5.8,51,0.00,,CLR,0.00,VWS V14.01,2013-01-24 20:01:00,
2013-01-24 14:07:00,10.0,-4.5,30.26,North,5,0.0,0.0,51,0.00,,CLR,0.00,VWS V14.01,2013-01-24 20:07:00,
2013-01-24 14:12:00,9.7,-4.8,30.26,North,5,0.0,0.0,51,0.00,,CLR,0.00,VWS V14.01,2013-01-24 20:12:00,
2013-01-24 14:17:00,10.0,-4.5,30.26,NNE,15,0.0,0.0,51,0.00,,CLR,0.00,VWS V14.01,2013-01-24 20:17:00,
2013-01-24 14:23:00,10.2,-4.3,30.26,North,357,0.0,0.0,51,0.00,,CLR,0.00,VWS V14.01,2013-01-24 20:23:00,
2013-01-24 14:29:00,9.7,-4.8,30.26,North,357,0.0,0.0,51,0.00,,CLR,0.00,VWS V14.01,2013-01-24 20:29:00,
2013-01-24 14:34:00,10.2,-4.3,30.26,North,3,0.0,0.0,51,0.00,,CLR,0.00,VWS V14.01,2013-01-24 20:34:00,
2013-01-24 14:39:00,10.4,-4.1,30.26,North,6,0.0,0.0,51,0.00,,CLR,0.00,VWS V14.01,2013-01-24 20:39:00,
2013-01-24 14:44:00,10.4,-4.1,30.26,North,11,0.0,0.0,51,0.00,,CLR,0.00,VWS V14.01,2013-01-24 20:44:00,
2013-01-24 14:50:00,10.6,-4.0,30.26,North,11,0.0,0.0,51,0.00,,CLR,0.00,VWS V14.01,2013-01-24 20:50:00,
2013-01-24 14:56:00,10.8,-3.8,30.26,NE,55,0.0,0.0,51,0.00,,CLR,0.00,VWS V14.01,2013-01-24 20:56:00,
2013-01-24 15:01:00,11.1,-3.5,30.26,NE,55,0.0,0.0,51,0.00,,CLR,0.00,VWS V14.01,2013-01-24 21:01:00,
2013-01-24 15:06:00,11.3,-3.3,30.26,ENE,73,0.0,0.0,51,0.00,,CLR,0.00,VWS V14.01,2013-01-24 21:06:00,
2013-01-24 15:12:00,11.5,-3.1,30.26,ENE,70,0.0,0.0,51,0.00,,CLR,0.00,VWS V14.01,2013-01-24 21:12:00,
2013-01-24 15:17:00,11.5,-3.1,30.26,ENE,72,0.0,0.0,51,0.00,,CLR,0.00,VWS V14.01,2013-01-24 21:17:00,
2013-01-24 15:22:00,11.5,-3.1,30.23,NE,41,0.0,0.0,51,0.00,,CLR,0.00,VWS V14.01,2013-01-24 21:22:00,
2013-01-24 15:27:00,11.3,-3.3,30.23,NNE,21,0.0,0.0,51,0.00,,CLR,0.00,VWS V14.01,2013-01-24 21:27:00,
2013-01-24 15:33:00,11.1,-3.5,30.23,NNE,21,0.0,0.0,51,0.00,,CLR,0.00,VWS V14.01,2013-01-24 21:33:00,
2013-01-24 15:38:00,10.9,-3.6,30.23,NNE,23,0.0,0.0,51,0.00,,CLR,0.00,VWS V14.01,2013-01-24 21:38:00,
2013-01-24 15:44:00,11.1,-3.5,30.23,NE,49,0.0,0.0,51,0.00,,CLR,0.00,VWS V14.01,2013-01-24 21:44:00,
2013-01-24 15:49:00,11.3,-3.3,30.23,ESE,103,2.2,5.4,51,0.00,,CLR,0.00,VWS V14.01,2013-01-24 21:49:00,
2013-01-24 15:54:00,11.3,-3.3,30.23,ESE,103,0.0,0.0,51,0.00,,CLR,0.00,VWS V14.01,2013-01-24 21:54:00,
2013-01-24 16:00:00,11.3,-3.3,30.23,ESE,103,0.0,0.0,51,0.00,,CLR,0.00,VWS V14.01,2013-01-24 22:00:00,
2013-01-24 16:05:00,11.3,-3.3,30.23,ENE,77,0.0,0.0,51,0.00,,CLR,0.00,VWS V14.01,2013-01-24 22:05:00,
2013-01-24 16:11:00,11.1,-3.5,30.23,ENE,78,0.0,0.0,51,0.00,,CLR,0.00,VWS V14.01,2013-01-24 22:11:00,
2013-01-24 16:16:00,11.1,-3.5,30.23,ENE,78,0.0,0.0,51,0.00,,CLR,0.00,VWS V14.01,2013-01-24 22:16:00,
2013-01-24 16:22:00,11.1,-3.5,30.23,East,97,0.0,0.0,51,0.00,,CLR,0.00,VWS V14.01,2013-01-24 22:22:00,
2013-01-24 16:27:00,11.1,-3.5,30.23,East,98,0.0,0.0,51,0.00,,CLR,0.00,VWS V14.01,2013-01-24 22:27:00,
2013-01-24 16:32:00,10.9,-3.6,30.23,East,97,0.0,0.0,51,0.00,,CLR,0.00,VWS V14.01,2013-01-24 22:32:00,
2013-01-24 16:38:00,10.8,-3.8,30.23,East,96,0.0,0.0,51,0.00,,CLR,0.00,VWS V14.01,2013-01-24 22:38:00,
2013-01-24 16:43:00,10.8,-3.8,30.23,East,96,0.0,0.0,51,0.00,,CLR,0.00,VWS V14.01,2013-01-24 22:43:00,
2013-01-24 16:48:00,10.8,-3.8,30.23,East,95,0.0,0.0,51,0.00,,CLR,0.00,VWS V14.01,2013-01-24 22:48:00,
2013-01-24 16:53:00,10.8,-3.8,30.20,East,86,0.0,0.0,51,0.00,,CLR,0.00,VWS V14.01,2013-01-24 22:53:00,
2013-01-24 16:59:00,10.8,-3.8,30.20,East,85,0.0,0.0,51,0.00,,CLR,0.00,VWS V14.01,2013-01-24 22:59:00,
2013-01-24 17:04:00,10.6,-4.0,30.20,East,84,0.0,0.0,51,0.00,,CLR,0.00,VWS V14.01,2013-01-24 23:04:00,
2013-01-24 17:09:00,10.4,-4.1,30.20,East,84,0.0,0.0,51,0.00,,CLR,0.00,VWS V14.01,2013-01-24 23:09:00,
2013-01-24 17:14:00,10.4,-4.1,30.20,East,85,0.0,0.0,51,0.00,,CLR,0.00,VWS V14.01,2013-01-24 23:14:00,
2013-01-24 17:19:00,10.4,-4.1,30.20,East,84,0.0,0.0,51,0.00,,CLR,0.00,VWS V14.01,2013-01-24 23:19:00,
2013-01-24 17:24:00,10.4,-4.1,30.20,East,85,0.0,0.0,51,0.00,,CLR,0.00,VWS V14.01,2013-01-24 23:24:00,
2013-01-24 17:30:00,10.4,-4.1,30.20,East,84,0.0,0.0,51,0.00,,CLR,0.00,VWS V14.01,2013-01-24 23:30:00,
2013-01-24 17:35:00,10.4,-4.1,30.20,East,85,0.0,0.0,51,0.00,,CLR,0.00,VWS V14.01,2013-01-24 23:35:00,
2013-01-24 17:41:00,10.2,-4.3,30.20,East,85,0.0,0.0,51,0.00,,CLR,0.00,VWS V14.01,2013-01-24 23:41:00,
2013-01-24 17:46:00,10.2,-4.3,30.20,East,85,0.0,0.0,51,0.00,,CLR,0.00,VWS V14.01,2013-01-24 23:46:00,
2013-01-24 17:51:00,10.2,-4.3,30.20,East,85,0.0,0.0,51,0.00,,CLR,0.00,VWS V14.01,2013-01-24 23:51:00,
2013-01-24 17:56:00,10.4,-4.1,30.20,East,88,0.0,0.0,51,0.00,,CLR,0.00,VWS V14.01,2013-01-24 23:56:00,
2013-01-24 18:02:00,10.4,-4.1,30.20,East,101,0.0,0.0,51,0.00,,CLR,0.00,VWS V14.01,2013-01-25 00:02:00,
2013-01-24 18:07:00,10.2,-4.3,30.20,ESE,103,0.0,0.0,51,0.00,,CLR,0.00,VWS V14.01,2013-01-25 00:07:00,
2013-01-24 18:13:00,10.4,-4.1,30.20,East,99,0.0,3.1,51,0.00,,CLR,0.00,VWS V14.01,2013-01-25 00:13:00,
2013-01-24 18:18:00,10.4,-4.1,30.20,ESE,108,2.7,5.4,51,0.00,,CLR,0.00,VWS V14.01,2013-01-25 00:18:00,
2013-01-24 18:24:00,10.2,-4.3,30.17,ESE,102,4.0,4.9,51,0.00,,CLR,0.00,VWS V14.01,2013-01-25 00:24:00,
2013-01-24 18:29:00,10.2,-4.3,30.17,ESE,108,3.6,4.0,51,0.00,,CLR,0.00,VWS V14.01,2013-01-25 00:29:00,
2013-01-24 18:35:00,10.2,-4.3,30.17,ESE,106,4.9,4.9,51,0.00,,CLR,0.00,VWS V14.01,2013-01-25 00:35:00,
2013-01-24 18:40:00,10.2,-4.3,30.17,ESE,113,2.2,3.6,51,0.00,,CLR,0.00,VWS V14.01,2013-01-25 00:40:00,
2013-01-24 18:45:00,10.2,-4.3,30.17,SE,125,6.3,6.3,51,0.00,,CLR,0.00,VWS V14.01,2013-01-25 00:45:00,
2013-01-24 18:50:00,10.0,-4.5,30.17,ESE,114,2.7,4.9,51,0.00,,CLR,0.00,VWS V14.01,2013-01-25 00:50:00,
2013-01-24 18:55:00,10.0,-4.5,30.17,ESE,104,0.0,0.0,51,0.00,,CLR,0.00,VWS V14.01,2013-01-25 00:55:00,
2013-01-24 19:01:00,10.0,-4.5,30.17,East,91,2.7,2.7,51,0.00,,CLR,0.00,VWS V14.01,2013-01-25 01:01:00,
2013-01-24 19:06:00,10.2,-4.3,30.17,ESE,106,5.4,5.4,51,0.00,,CLR,0.00,VWS V14.01,2013-01-25 01:06:00,
2013-01-24 19:12:00,10.2,-4.3,30.14,ESE,111,4.9,4.9,51,0.00,,CLR,0.00,VWS V14.01,2013-01-25 01:12:00,
2013-01-24 19:17:00,10.2,-4.3,30.14,East,95,3.6,5.8,51,0.00,,CLR,0.00,VWS V14.01,2013-01-25 01:17:00,
2013-01-24 19:23:00,10.0,-4.5,30.14,ESE,111,0.0,0.0,51,0.00,,CLR,0.00,VWS V14.01,2013-01-25 01:23:00,
2013-01-24 19:29:00,10.2,-4.3,30.14,ESE,109,0.0,2.7,51,0.00,,CLR,0.00,VWS V14.01,2013-01-25 01:29:00,
2013-01-24 19:35:00,10.2,-4.3,30.14,ESE,114,3.6,3.6,51,0.00,,CLR,0.00,VWS V14.01,2013-01-25 01:35:00,
2013-01-24 19:40:00,10.2,-4.3,30.14,ESE,114,0.0,0.0,51,0.00,,CLR,0.00,VWS V14.01,2013-01-25 01:40:00,
2013-01-24 19:45:00,10.2,-4.3,30.14,ESE,106,0.0,0.0,51,0.00,,CLR,0.00,VWS V14.01,2013-01-25 01:45:00,
2013-01-24 19:50:00,10.4,-4.1,30.14,ESE,109,0.0,2.7,51,0.00,,CLR,0.00,VWS V14.01,2013-01-25 01:50:00,
2013-01-24 19:55:00,10.4,-4.1,30.14,ESE,112,3.1,3.1,51,0.00,,CLR,0.00,VWS V14.01,2013-01-25 01:55:00,
2013-01-24 20:01:00,10.4,-4.1,30.14,East,98,2.7,4.0,51,0.00,,OVC100,0.00,VWS V14.01,2013-01-25 02:01:00,
2013-01-24 20:06:00,10.6,-4.0,30.14,ESE,104,2.7,4.0,51,0.00,,OVC100,0.00,VWS V14.01,2013-01-25 02:06:00,
2013-01-24 20:11:00,10.6,-4.0,30.14,ESE,118,0.0,0.0,51,0.00,,OVC100,0.00,VWS V14.01,2013-01-25 02:11:00,
2013-01-24 20:17:00,10.6,-4.0,30.14,ESE,117,0.0,0.0,51,0.00,,OVC100,0.00,VWS V14.01,2013-01-25 02:17:00,
2013-01-24 20:23:00,10.8,-3.8,30.14,ESE,116,0.0,0.0,51,0.00,,OVC100,0.00,VWS V14.01,2013-01-25 02:23:00,
2013-01-24 20:29:00,10.8,-3.8,30.14,ESE,116,0.0,0.0,51,0.00,,OVC100,0.00,VWS V14.01,2013-01-25 02:29:00,
2013-01-24 20:34:00,10.9,-3.6,30.14,ESE,116,0.0,0.0,51,0.00,,OVC100,0.00,VWS V14.01,2013-01-25 02:34:00,
2013-01-24 20:40:00,10.9,-3.6,30.14,ESE,116,0.0,0.0,51,0.00,,OVC100,0.00,VWS V14.01,2013-01-25 02:40:00,
2013-01-24 20:46:00,11.1,-3.5,30.14,ESE,116,0.0,0.0,51,0.00,,OVC100,0.00,VWS V14.01,2013-01-25 02:46:00,
2013-01-24 20:51:00,11.1,-3.5,30.14,ESE,117,0.0,0.0,51,0.00,,OVC100,0.00,VWS V14.01,2013-01-25 02:51:00,
2013-01-24 20:57:00,11.1,-3.5,30.11,ESE,117,0.0,0.0,51,0.00,,OVC100,0.00,VWS V14.01,2013-01-25 02:57:00,
2013-01-24 21:02:00,11.3,-3.3,30.11,ESE,119,0.0,0.0,51,0.00,,OVC090,0.00,VWS V14.01,2013-01-25 03:02:00,
2013-01-24 21:08:00,11.3,-3.3,30.11,ESE,113,0.0,0.0,51,0.00,,OVC090,0.00,VWS V14.01,2013-01-25 03:08:00,
2013-01-24 21:13:00,11.3,-3.3,30.11,ESE,113,0.0,0.0,51,0.00,,OVC090,0.00,VWS V14.01,2013-01-25 03:13:00,
2013-01-24 21:18:00,11.3,-3.3,30.11,ESE,117,0.0,3.1,51,0.00,,OVC090,0.00,VWS V14.01,2013-01-25 03:18:00,
2013-01-24 21:33:00,11.3,-3.3,30.08,ESE,116,4.0,4.0,51,0.00,,OVC090,0.00,VWS V14.01,2013-01-25 03:33:00,
2013-01-24 21:39:00,11.3,-3.3,30.08,ESE,110,2.7,3.1,51,0.00,,OVC090,0.00,VWS V14.01,2013-01-25 03:39:00,
2013-01-24 21:44:00,11.3,-3.3,30.08,ESE,104,3.1,4.0,51,0.00,,OVC090,0.00,VWS V14.01,2013-01-25 03:44:00,
2013-01-24 21:49:00,11.3,-3.3,30.08,ESE,118,0.0,3.1,51,0.00,,OVC090,0.00,VWS V14.01,2013-01-25 03:49:00,
2013-01-24 21:54:00,11.3,-3.3,30.08,ESE,103,4.5,4.9,51,0.00,,OVC090,0.00,VWS V14.01,2013-01-25 03:54:00,
2013-01-24 22:00:00,11.3,-3.3,30.08,East,101,2.7,4.0,51,0.00,,OVC090,0.00,VWS V14.01,2013-01-25 04:00:00,
2013-01-24 22:05:00,11.5,-3.1,30.08,East,99,2.2,5.4,51,0.00,,OVC080,0.00,VWS V14.01,2013-01-25 04:05:00,
2013-01-24 22:11:00,11.7,-3.0,30.08,ESE,103,2.2,5.4,51,0.00,,OVC080,0.00,VWS V14.01,2013-01-25 04:11:00,
2013-01-24 22:17:00,11.7,-3.0,30.08,ESE,112,5.4,5.4,51,0.00,,OVC080,0.00,VWS V14.01,2013-01-25 04:17:00,
2013-01-24 22:22:00,11.8,-2.8,30.08,ESE,106,0.0,0.0,51,0.00,,OVC080,0.00,VWS V14.01,2013-01-25 04:22:00,
2013-01-24 22:27:00,11.8,-2.8,30.08,ESE,105,5.8,5.8,51,0.00,,OVC080,0.00,VWS V14.01,2013-01-25 04:27:00,
2013-01-24 22:32:00,11.8,-2.8,30.08,ESE,106,0.0,4.0,51,0.00,,OVC080,0.00,VWS V14.01,2013-01-25 04:32:00,
2013-01-24 22:37:00,12.0,-2.6,30.08,ESE,104,2.7,4.0,51,0.00,,OVC080,0.00,VWS V14.01,2013-01-25 04:37:00,
2013-01-24 22:43:00,12.0,-2.6,30.08,East,97,5.4,5.4,51,0.00,,OVC080,0.00,VWS V14.01,2013-01-25 04:43:00,
2013-01-24 22:48:00,12.0,-2.6,30.08,ESE,104,3.1,3.6,51,0.00,,OVC080,0.00,VWS V14.01,2013-01-25 04:48:00,
2013-01-24 22:54:00,12.0,-2.6,30.08,East,95,6.3,6.3,51,0.00,,OVC080,0.00,VWS V14.01,2013-01-25 04:54:00,
2013-01-24 22:59:00,12.2,-2.5,30.08,ESE,114,2.7,2.7,51,0.00,,OVC080,0.00,VWS V14.01,2013-01-25 04:59:00,
2013-01-24 23:01:00,12.2,-2.5,30.08,SE,137,3.1,5.8,51,0.00,,,0.00,VWS V14.01,2013-01-25 05:01:00,
2013-01-24 23:03:00,12.2,-2.5,30.08,East,98,2.2,5.8,51,0.00,,,0.00,VWS V14.01,2013-01-25 05:03:00,
2013-01-24 23:04:00,12.2,-2.5,30.08,ESE,105,3.1,4.0,51,0.00,,,0.00,VWS V14.01,2013-01-25 05:04:00,
2013-01-24 23:08:00,12.2,-2.5,30.08,ESE,105,0.0,3.6,51,0.00,,,0.00,VWS V14.01,2013-01-25 05:08:00,
2013-01-24 23:13:00,12.4,-2.3,30.08,ESE,102,3.6,3.6,51,0.00,,,0.00,VWS V14.01,2013-01-25 05:13:00,
2013-01-24 23:18:00,12.6,-2.1,30.08,SE,132,0.0,4.9,51,0.00,,,0.00,VWS V14.01,2013-01-25 05:18:00,
2013-01-24 23:23:00,12.7,-2.0,30.08,SE,133,3.1,3.6,51,0.00,,,0.00,VWS V14.01,2013-01-25 05:23:00,
2013-01-24 23:29:00,12.7,-2.0,30.08,ESE,103,5.8,5.8,51,0.00,,,0.00,VWS V14.01,2013-01-25 05:29:00,
2013-01-24 23:35:00,12.9,-1.8,30.08,SE,130,2.2,3.1,51,0.00,,,0.00,VWS V14.01,2013-01-25 05:35:00,
2013-01-24 23:41:00,12.9,-1.8,30.05,SSE,148,2.7,3.6,51,0.00,,,0.00,VWS V14.01,2013-01-25 05:41:00,
2013-01-24 23:46:00,13.3,-1.5,30.05,SE,135,0.0,0.0,51,0.00,,,0.00,VWS V14.01,2013-01-25 05:46:00,
2013-01-24 23:52:00,13.3,-1.5,30.05,ESE,109,0.0,2.7,51,0.00,,,0.00,VWS V14.01,2013-01-25 05:52:00,
2013-01-24 23:57:00,13.5,-1.3,30.05,SE,138,0.0,0.0,51,0.00,,,0.00,VWS V14.01,2013-01-25 05:57:00,